Allendale, Massachusetts
Current Conditions -  °F | °C
As of 6:54 PM on Saturday 25 Oct 2014 (Local Time) from KPSF Reporting Station
Overcast Overcast  
Wind Chill: 55°   Ceiling: 6500
Heat Index: 55°   Visibility: 10mi
Dew Point: 42°   Wind: 5mph
Humidity: 62%   Direction: NA
Pressure: 29.57"   Gusts: NA
Location:  42.4608°N, 73.282°W
Report Text: KPSF 252254Z AUTO VRB04KT 10SM BKN065 OVC080 13/06 A2957 RMK AO2 SLP008 T01280056
Loading
Personal Weather Stations






























Interactive Weather Map
Tropical Storm Tracking
New forecast layout! Learn more

10-Day Weather Forecast

Advertisements
Track Severe Weather on mobile